Погода Сан-Жозе-ди-Рибамарна неделю

Мараньян, Бразилия

24 - 30 июля
  • 24июля
    Сегодня
    +26°
    +31°
    Облачно с прояснениями
    ВремяПогодаТемператураВлажностьДавлениеВетер, м/сВероятность осадков
    00:00Небольшая облачность+27°C82 %762 мм5.1 м/с5 %
    03:00Небольшая облачность+26°C85 %761 мм4.6 м/с5 %
    06:00Небольшая облачность+26°C87 %761 мм3.8 м/с2 %
    09:00Ясно и безоблачно+28°C75 %763 мм5.3 м/с14 %
    12:00Ясно и безоблачно+30°C50 %762 мм3.3 м/с12 %
    15:00Облачно с прояснениями+31°C47 %760 мм3.8 м/с3 %
    18:00Ясно и безоблачно+28°C56 %760 мм2.6 м/с5 %
    21:00Ясно и безоблачно+27°C77 %762 мм3.0 м/с5 %
  • 25июля
    Четверг
    +26°
    +31°
    Небольшая облачность
    ВремяПогодаТемператураВлажностьДавлениеВетер, м/сВероятность осадков
    00:00Ясно и безоблачно+27°C81 %762 мм4.2 м/с5 %
    03:00Ясно и безоблачно+27°C79 %761 мм3.9 м/с4 %
    06:00Ясно и безоблачно+26°C86 %761 мм3.6 м/с2 %
    09:00Ясно и безоблачно+28°C75 %762 мм4.8 м/с3 %
    12:00Практически безоблачно+30°C48 %762 мм4.3 м/с2 %
    15:00Небольшая облачность+31°C44 %759 мм4.0 м/с5 %
    18:00Ясно и безоблачно+29°C51 %760 мм2.3 м/с5 %
    21:00Ясно и безоблачно+28°C70 %761 мм2.6 м/с5 %
  • 26июля
    Пятница
    +26°
    +31°
    Пасмурно, сплошная облачность
    ВремяПогодаТемператураВлажностьДавлениеВетер, м/сВероятность осадков
    00:00Ясно и безоблачно+27°C78 %761 мм4.9 м/с5 %
    03:00Ясно и безоблачно+27°C76 %759 мм4.6 м/с5 %
    06:00Ясно и безоблачно+26°C83 %760 мм4.0 м/с3 %
    09:00Практически безоблачно+28°C76 %762 мм5.2 м/с20 %
    12:00Облачно с прояснениями+30°C51 %761 мм4.5 м/с8 %
    15:00Пасмурно, сплошная облачность+30°C51 %759 мм2.9 м/с4 %
    18:00Практически безоблачно+29°C68 %759 мм4.9 м/с4 %
    21:00Ясно и безоблачно+27°C78 %761 мм4.5 м/с7 %
  • 27июля
    Суббота
    +26°
    +31°
    Небольшая облачность
    ВремяПогодаТемператураВлажностьДавлениеВетер, м/сВероятность осадков
    00:00Ясно и безоблачно+27°C78 %761 мм5.0 м/с9 %
    03:00Ясно и безоблачно+27°C82 %760 мм4.8 м/с15 %
    06:00Ясно и безоблачно+27°C84 %760 мм4.1 м/с22 %
    09:00Ясно и безоблачно+28°C73 %762 мм5.9 м/с29 %
    12:00Практически безоблачно+31°C55 %761 мм5.3 м/с21 %
    15:00Небольшая облачность+30°C55 %759 мм2.9 м/с19 %
    18:00Ясно и безоблачно+29°C74 %760 мм4.3 м/с7 %
    21:00Ясно и безоблачно+27°C80 %762 мм4.8 м/с6 %
  • 28июля
    Воскресенье
    +26°
    +31°
    Ясно и безоблачно
    ВремяПогодаТемператураВлажностьДавлениеВетер, м/сВероятность осадков
    00:00Ясно и безоблачно+27°C82 %761 мм5.1 м/с12 %
    03:00Ясно и безоблачно+27°C83 %760 мм5.0 м/с22 %
    06:00Ясно и безоблачно+27°C85 %761 мм5.2 м/с12 %
    09:00Ясно и безоблачно+28°C73 %762 мм5.6 м/с36 %
    12:00Практически безоблачно+30°C59 %761 мм5.9 м/с34 %
    15:00Ясно и безоблачно+30°C64 %759 мм5.5 м/с36 %
    18:00Ясно и безоблачно+29°C74 %760 мм5.7 м/с16 %
    21:00Ясно и безоблачно+27°C81 %762 мм5.4 м/с13 %
Мы используем cookies
Соглашаюсь